sensor_id;sensor_type;location;lat;lon;timestamp;P1;durP1;ratioP1;P2;durP2;ratioP2
78484;SDS011;67773;50.806;8.776;2023-03-19T00:01:39;10.57;;;5.88;;
78484;SDS011;67773;50.806;8.776;2023-03-19T00:04:04;7.50;;;5.40;;
78484;SDS011;67773;50.806;8.776;2023-03-19T00:06:30;9.23;;;5.40;;
78484;SDS011;67773;50.806;8.776;2023-03-19T00:08:55;7.68;;;5.22;;
78484;SDS011;67773;50.806;8.776;2023-03-19T00:11:21;8.43;;;5.87;;
78484;SDS011;67773;50.806;8.776;2023-03-19T00:13:46;9.98;;;5.70;;
78484;SDS011;67773;50.806;8.776;2023-03-19T00:16:11;9.93;;;6.30;;
78484;SDS011;67773;50.806;8.776;2023-03-19T00:18:37;12.63;;;6.80;;
78484;SDS011;67773;50.806;8.776;2023-03-19T00:21:02;8.60;;;5.57;;
78484;SDS011;67773;50.806;8.776;2023-03-19T00:23:28;10.02;;;6.88;;
78484;SDS011;67773;50.806;8.776;2023-03-19T00:25:53;8.63;;;6.20;;
78484;SDS011;67773;50.806;8.776;2023-03-19T00:28:18;10.73;;;6.68;;
78484;SDS011;67773;50.806;8.776;2023-03-19T00:30:44;8.90;;;6.50;;
78484;SDS011;67773;50.806;8.776;2023-03-19T00:33:09;9.87;;;6.23;;
78484;SDS011;67773;50.806;8.776;2023-03-19T00:35:35;11.80;;;7.03;;
78484;SDS011;67773;50.806;8.776;2023-03-19T00:38:00;10.30;;;6.93;;
78484;SDS011;67773;50.806;8.776;2023-03-19T00:40:26;9.83;;;7.07;;
78484;SDS011;67773;50.806;8.776;2023-03-19T00:42:51;11.60;;;7.20;;
78484;SDS011;67773;50.806;8.776;2023-03-19T00:45:16;15.30;;;8.18;;
78484;SDS011;67773;50.806;8.776;2023-03-19T00:47:42;13.07;;;7.53;;
78484;SDS011;67773;50.806;8.776;2023-03-19T00:50:08;11.43;;;7.10;;
78484;SDS011;67773;50.806;8.776;2023-03-19T00:52:33;11.77;;;7.30;;
78484;SDS011;67773;50.806;8.776;2023-03-19T00:54:59;11.50;;;7.53;;
78484;SDS011;67773;50.806;8.776;2023-03-19T00:57:24;10.68;;;7.68;;
78484;SDS011;67773;50.806;8.776;2023-03-19T00:59:50;11.38;;;7.75;;
78484;SDS011;67773;50.806;8.776;2023-03-19T01:02:16;11.35;;;7.72;;
78484;SDS011;67773;50.806;8.776;2023-03-19T01:04:41;12.13;;;8.23;;
78484;SDS011;67773;50.806;8.776;2023-03-19T01:07:07;11.10;;;7.43;;
78484;SDS011;67773;50.806;8.776;2023-03-19T01:09:33;13.18;;;8.32;;
78484;SDS011;67773;50.806;8.776;2023-03-19T01:11:59;14.13;;;7.78;;
78484;SDS011;67773;50.806;8.776;2023-03-19T01:14:28;10.15;;;7.65;;
78484;SDS011;67773;50.806;8.776;2023-03-19T01:16:54;12.98;;;7.78;;
78484;SDS011;67773;50.806;8.776;2023-03-19T01:19:20;12.90;;;7.57;;
78484;SDS011;67773;50.806;8.776;2023-03-19T01:21:46;12.63;;;6.82;;
78484;SDS011;67773;50.806;8.776;2023-03-19T01:24:13;10.38;;;6.95;;
78484;SDS011;67773;50.806;8.776;2023-03-19T01:26:39;9.18;;;7.13;;
78484;SDS011;67773;50.806;8.776;2023-03-19T01:29:04;10.27;;;7.70;;
78484;SDS011;67773;50.806;8.776;2023-03-19T01:31:30;9.73;;;7.23;;
78484;SDS011;67773;50.806;8.776;2023-03-19T01:33:55;9.97;;;7.57;;
78484;SDS011;67773;50.806;8.776;2023-03-19T01:36:20;10.97;;;7.97;;
78484;SDS011;67773;50.806;8.776;2023-03-19T01:38:46;12.13;;;7.75;;
78484;SDS011;67773;50.806;8.776;2023-03-19T01:41:11;13.23;;;8.65;;
78484;SDS011;67773;50.806;8.776;2023-03-19T01:43:38;12.45;;;8.43;;
78484;SDS011;67773;50.806;8.776;2023-03-19T01:46:07;14.10;;;8.43;;
78484;SDS011;67773;50.806;8.776;2023-03-19T01:48:42;12.38;;;8.20;;
78484;SDS011;67773;50.806;8.776;2023-03-19T01:51:11;11.05;;;7.75;;
78484;SDS011;67773;50.806;8.776;2023-03-19T01:53:40;12.30;;;8.13;;
78484;SDS011;67773;50.806;8.776;2023-03-19T01:56:19;10.13;;;7.50;;
78484;SDS011;67773;50.806;8.776;2023-03-19T01:58:48;10.43;;;7.43;;
78484;SDS011;67773;50.806;8.776;2023-03-19T02:01:17;15.20;;;7.53;;
78484;SDS011;67773;50.806;8.776;2023-03-19T02:03:42;12.65;;;8.60;;
78484;SDS011;67773;50.806;8.776;2023-03-19T02:06:09;9.70;;;7.38;;
78484;SDS011;67773;50.806;8.776;2023-03-19T02:08:36;11.65;;;7.15;;
78484;SDS011;67773;50.806;8.776;2023-03-19T02:11:03;11.82;;;7.40;;
78484;SDS011;67773;50.806;8.776;2023-03-19T02:13:29;11.35;;;7.88;;
78484;SDS011;67773;50.806;8.776;2023-03-19T02:15:55;12.43;;;7.65;;
78484;SDS011;67773;50.806;8.776;2023-03-19T02:18:20;9.27;;;7.28;;
78484;SDS011;67773;50.806;8.776;2023-03-19T02:20:52;11.52;;;7.88;;
78484;SDS011;67773;50.806;8.776;2023-03-19T02:23:34;10.65;;;7.25;;
78484;SDS011;67773;50.806;8.776;2023-03-19T02:28:37;12.27;;;8.18;;
78484;SDS011;67773;50.806;8.776;2023-03-19T02:31:06;10.80;;;8.52;;
78484;SDS011;67773;50.806;8.776;2023-03-19T02:33:32;9.77;;;7.15;;
78484;SDS011;67773;50.806;8.776;2023-03-19T02:35:58;12.75;;;7.57;;
78484;SDS011;67773;50.806;8.776;2023-03-19T02:38:24;11.02;;;7.93;;
78484;SDS011;67773;50.806;8.776;2023-03-19T02:40:51;11.65;;;7.68;;
78484;SDS011;67773;50.806;8.776;2023-03-19T02:43:22;10.10;;;7.28;;
78484;SDS011;67773;50.806;8.776;2023-03-19T02:45:47;10.82;;;7.47;;
78484;SDS011;67773;50.806;8.776;2023-03-19T02:48:12;12.02;;;7.72;;
78484;SDS011;67773;50.806;8.776;2023-03-19T02:50:38;12.90;;;7.22;;
78484;SDS011;67773;50.806;8.776;2023-03-19T02:53:03;11.27;;;7.23;;
78484;SDS011;67773;50.806;8.776;2023-03-19T02:55:29;14.05;;;8.48;;
78484;SDS011;67773;50.806;8.776;2023-03-19T02:57:54;9.25;;;7.00;;
78484;SDS011;67773;50.806;8.776;2023-03-19T03:00:20;11.83;;;6.87;;
78484;SDS011;67773;50.806;8.776;2023-03-19T03:02:45;9.57;;;7.15;;
78484;SDS011;67773;50.806;8.776;2023-03-19T03:05:11;10.82;;;7.78;;
78484;SDS011;67773;50.806;8.776;2023-03-19T03:07:38;11.18;;;6.90;;
78484;SDS011;67773;50.806;8.776;2023-03-19T03:10:04;11.20;;;7.32;;
78484;SDS011;67773;50.806;8.776;2023-03-19T03:12:30;11.15;;;7.38;;
78484;SDS011;67773;50.806;8.776;2023-03-19T03:14:56;9.82;;;7.10;;
78484;SDS011;67773;50.806;8.776;2023-03-19T03:17:21;11.05;;;6.95;;
78484;SDS011;67773;50.806;8.776;2023-03-19T03:19:47;10.55;;;7.55;;
78484;SDS011;67773;50.806;8.776;2023-03-19T03:22:12;12.93;;;7.70;;
78484;SDS011;67773;50.806;8.776;2023-03-19T03:24:37;11.67;;;7.43;;
78484;SDS011;67773;50.806;8.776;2023-03-19T03:27:03;11.10;;;7.25;;
78484;SDS011;67773;50.806;8.776;2023-03-19T03:29:28;12.88;;;8.05;;
78484;SDS011;67773;50.806;8.776;2023-03-19T03:31:54;11.10;;;8.40;;
78484;SDS011;67773;50.806;8.776;2023-03-19T03:34:19;10.40;;;7.70;;
78484;SDS011;67773;50.806;8.776;2023-03-19T03:36:45;11.05;;;7.47;;
78484;SDS011;67773;50.806;8.776;2023-03-19T03:39:11;11.90;;;7.25;;
78484;SDS011;67773;50.806;8.776;2023-03-19T03:41:36;10.43;;;7.38;;
78484;SDS011;67773;50.806;8.776;2023-03-19T03:44:01;10.07;;;7.40;;
78484;SDS011;67773;50.806;8.776;2023-03-19T03:46:27;10.13;;;6.70;;
78484;SDS011;67773;50.806;8.776;2023-03-19T03:48:52;9.70;;;6.67;;
78484;SDS011;67773;50.806;8.776;2023-03-19T03:51:18;11.50;;;7.17;;
78484;SDS011;67773;50.806;8.776;2023-03-19T03:53:43;11.23;;;7.60;;
78484;SDS011;67773;50.806;8.776;2023-03-19T03:56:08;10.10;;;6.80;;
78484;SDS011;67773;50.806;8.776;2023-03-19T03:58:34;8.95;;;6.28;;
78484;SDS011;67773;50.806;8.776;2023-03-19T04:01:00;8.48;;;6.57;;
78484;SDS011;67773;50.806;8.776;2023-03-19T04:03:25;9.77;;;6.20;;
78484;SDS011;67773;50.806;8.776;2023-03-19T04:05:51;9.93;;;7.22;;
78484;SDS011;67773;50.806;8.776;2023-03-19T04:08:16;10.73;;;7.28;;
78484;SDS011;67773;50.806;8.776;2023-03-19T04:10:42;9.88;;;6.95;;
78484;SDS011;67773;50.806;8.776;2023-03-19T04:13:08;11.18;;;7.40;;
78484;SDS011;67773;50.806;8.776;2023-03-19T04:15:34;12.98;;;8.10;;
78484;SDS011;67773;50.806;8.776;2023-03-19T04:17:59;12.57;;;7.60;;
78484;SDS011;67773;50.806;8.776;2023-03-19T04:20:25;10.75;;;7.50;;
78484;SDS011;67773;50.806;8.776;2023-03-19T04:22:50;11.68;;;7.50;;
78484;SDS011;67773;50.806;8.776;2023-03-19T04:25:16;11.83;;;8.17;;
78484;SDS011;67773;50.806;8.776;2023-03-19T04:27:42;11.85;;;7.75;;
78484;SDS011;67773;50.806;8.776;2023-03-19T04:30:08;12.77;;;8.40;;
78484;SDS011;67773;50.806;8.776;2023-03-19T04:32:35;12.85;;;8.18;;
78484;SDS011;67773;50.806;8.776;2023-03-19T04:35:00;11.98;;;8.38;;
78484;SDS011;67773;50.806;8.776;2023-03-19T04:37:27;11.95;;;8.10;;
78484;SDS011;67773;50.806;8.776;2023-03-19T04:39:52;10.05;;;7.28;;
78484;SDS011;67773;50.806;8.776;2023-03-19T04:42:18;11.20;;;7.93;;
78484;SDS011;67773;50.806;8.776;2023-03-19T04:44:44;10.25;;;7.80;;
78484;SDS011;67773;50.806;8.776;2023-03-19T04:47:09;13.97;;;8.17;;
78484;SDS011;67773;50.806;8.776;2023-03-19T04:49:34;10.23;;;7.63;;
78484;SDS011;67773;50.806;8.776;2023-03-19T04:52:00;12.90;;;7.75;;
78484;SDS011;67773;50.806;8.776;2023-03-19T04:54:26;11.13;;;7.63;;
78484;SDS011;67773;50.806;8.776;2023-03-19T04:56:52;11.70;;;7.90;;
78484;SDS011;67773;50.806;8.776;2023-03-19T04:59:17;12.52;;;7.32;;
78484;SDS011;67773;50.806;8.776;2023-03-19T05:01:43;9.53;;;7.57;;
78484;SDS011;67773;50.806;8.776;2023-03-19T05:04:08;11.98;;;7.50;;
78484;SDS011;67773;50.806;8.776;2023-03-19T05:06:34;11.07;;;7.80;;
78484;SDS011;67773;50.806;8.776;2023-03-19T05:09:00;12.70;;;7.72;;
78484;SDS011;67773;50.806;8.776;2023-03-19T05:11:26;13.95;;;8.30;;
78484;SDS011;67773;50.806;8.776;2023-03-19T05:13:51;10.95;;;7.90;;
78484;SDS011;67773;50.806;8.776;2023-03-19T05:16:16;12.73;;;8.97;;
78484;SDS011;67773;50.806;8.776;2023-03-19T05:18:42;10.10;;;7.50;;
78484;SDS011;67773;50.806;8.776;2023-03-19T05:21:10;9.33;;;7.00;;
78484;SDS011;67773;50.806;8.776;2023-03-19T05:23:36;10.88;;;8.45;;
78484;SDS011;67773;50.806;8.776;2023-03-19T05:26:02;11.43;;;8.00;;
78484;SDS011;67773;50.806;8.776;2023-03-19T05:28:27;11.63;;;7.90;;
78484;SDS011;67773;50.806;8.776;2023-03-19T05:30:53;13.43;;;8.27;;
78484;SDS011;67773;50.806;8.776;2023-03-19T05:33:19;9.80;;;7.72;;
78484;SDS011;67773;50.806;8.776;2023-03-19T05:35:44;13.63;;;8.60;;
78484;SDS011;67773;50.806;8.776;2023-03-19T05:38:09;11.52;;;8.02;;
78484;SDS011;67773;50.806;8.776;2023-03-19T05:40:35;13.32;;;7.97;;
78484;SDS011;67773;50.806;8.776;2023-03-19T05:43:01;10.80;;;7.60;;
78484;SDS011;67773;50.806;8.776;2023-03-19T05:45:26;13.20;;;7.27;;
78484;SDS011;67773;50.806;8.776;2023-03-19T05:47:52;12.27;;;7.53;;
78484;SDS011;67773;50.806;8.776;2023-03-19T05:50:17;12.77;;;7.78;;
78484;SDS011;67773;50.806;8.776;2023-03-19T05:52:43;14.18;;;8.02;;
78484;SDS011;67773;50.806;8.776;2023-03-19T05:55:09;10.20;;;7.47;;
78484;SDS011;67773;50.806;8.776;2023-03-19T05:57:35;13.02;;;7.85;;
78484;SDS011;67773;50.806;8.776;2023-03-19T06:00:00;9.85;;;7.38;;
78484;SDS011;67773;50.806;8.776;2023-03-19T06:02:26;10.53;;;7.43;;
78484;SDS011;67773;50.806;8.776;2023-03-19T06:04:51;10.50;;;7.32;;
78484;SDS011;67773;50.806;8.776;2023-03-19T06:07:16;10.53;;;7.53;;
78484;SDS011;67773;50.806;8.776;2023-03-19T06:09:42;10.40;;;7.07;;
78484;SDS011;67773;50.806;8.776;2023-03-19T06:12:07;12.83;;;7.67;;
78484;SDS011;67773;50.806;8.776;2023-03-19T06:14:32;10.67;;;7.40;;
78484;SDS011;67773;50.806;8.776;2023-03-19T06:16:58;12.60;;;7.53;;
78484;SDS011;67773;50.806;8.776;2023-03-19T06:19:23;11.10;;;7.90;;
78484;SDS011;67773;50.806;8.776;2023-03-19T06:21:48;9.67;;;7.20;;
78484;SDS011;67773;50.806;8.776;2023-03-19T06:24:14;10.07;;;7.05;;
78484;SDS011;67773;50.806;8.776;2023-03-19T06:26:39;11.27;;;7.27;;
78484;SDS011;67773;50.806;8.776;2023-03-19T06:29:04;11.52;;;7.28;;
78484;SDS011;67773;50.806;8.776;2023-03-19T06:31:30;10.52;;;7.60;;
78484;SDS011;67773;50.806;8.776;2023-03-19T06:33:55;14.93;;;8.37;;
78484;SDS011;67773;50.806;8.776;2023-03-19T06:36:21;8.30;;;6.80;;
78484;SDS011;67773;50.806;8.776;2023-03-19T06:38:46;12.52;;;7.90;;
78484;SDS011;67773;50.806;8.776;2023-03-19T06:41:12;12.57;;;8.03;;
78484;SDS011;67773;50.806;8.776;2023-03-19T06:43:37;11.30;;;7.53;;
78484;SDS011;67773;50.806;8.776;2023-03-19T06:46:05;12.95;;;7.70;;
78484;SDS011;67773;50.806;8.776;2023-03-19T06:48:31;10.50;;;7.67;;
78484;SDS011;67773;50.806;8.776;2023-03-19T06:50:57;13.18;;;8.38;;
78484;SDS011;67773;50.806;8.776;2023-03-19T06:53:22;12.13;;;7.85;;
78484;SDS011;67773;50.806;8.776;2023-03-19T06:55:48;13.98;;;7.80;;
78484;SDS011;67773;50.806;8.776;2023-03-19T06:58:13;11.70;;;8.70;;
78484;SDS011;67773;50.806;8.776;2023-03-19T07:00:38;10.67;;;7.70;;
78484;SDS011;67773;50.806;8.776;2023-03-19T07:03:05;11.55;;;8.00;;
78484;SDS011;67773;50.806;8.776;2023-03-19T07:05:31;9.55;;;6.82;;
78484;SDS011;67773;50.806;8.776;2023-03-19T07:07:56;11.73;;;7.82;;
78484;SDS011;67773;50.806;8.776;2023-03-19T07:10:22;10.33;;;7.57;;
78484;SDS011;67773;50.806;8.776;2023-03-19T07:12:47;9.83;;;7.20;;
78484;SDS011;67773;50.806;8.776;2023-03-19T07:15:12;9.43;;;7.73;;
78484;SDS011;67773;50.806;8.776;2023-03-19T07:17:39;11.13;;;7.80;;
78484;SDS011;67773;50.806;8.776;2023-03-19T07:20:04;12.50;;;8.30;;
78484;SDS011;67773;50.806;8.776;2023-03-19T07:22:30;9.73;;;7.38;;
78484;SDS011;67773;50.806;8.776;2023-03-19T07:24:56;10.75;;;7.75;;
78484;SDS011;67773;50.806;8.776;2023-03-19T07:27:21;13.40;;;8.50;;
78484;SDS011;67773;50.806;8.776;2023-03-19T07:29:46;9.93;;;6.70;;
78484;SDS011;67773;50.806;8.776;2023-03-19T07:32:13;12.90;;;7.85;;
78484;SDS011;67773;50.806;8.776;2023-03-19T07:34:38;10.55;;;7.30;;
78484;SDS011;67773;50.806;8.776;2023-03-19T07:37:04;9.65;;;6.93;;
78484;SDS011;67773;50.806;8.776;2023-03-19T07:39:30;11.10;;;7.57;;
78484;SDS011;67773;50.806;8.776;2023-03-19T07:41:55;11.05;;;7.80;;
78484;SDS011;67773;50.806;8.776;2023-03-19T07:44:20;11.33;;;8.00;;
78484;SDS011;67773;50.806;8.776;2023-03-19T07:46:46;10.23;;;8.00;;
78484;SDS011;67773;50.806;8.776;2023-03-19T07:49:11;10.60;;;7.55;;
78484;SDS011;67773;50.806;8.776;2023-03-19T07:51:37;10.40;;;7.83;;
78484;SDS011;67773;50.806;8.776;2023-03-19T07:54:02;11.80;;;7.40;;
78484;SDS011;67773;50.806;8.776;2023-03-19T07:56:27;11.73;;;7.70;;
78484;SDS011;67773;50.806;8.776;2023-03-19T07:58:53;10.27;;;7.63;;
78484;SDS011;67773;50.806;8.776;2023-03-19T08:01:18;10.63;;;8.20;;
78484;SDS011;67773;50.806;8.776;2023-03-19T08:03:44;10.27;;;8.10;;
78484;SDS011;67773;50.806;8.776;2023-03-19T08:06:09;10.35;;;8.27;;
78484;SDS011;67773;50.806;8.776;2023-03-19T08:08:35;10.80;;;7.53;;
78484;SDS011;67773;50.806;8.776;2023-03-19T08:11:00;11.30;;;7.72;;
78484;SDS011;67773;50.806;8.776;2023-03-19T08:13:26;13.98;;;8.68;;
78484;SDS011;67773;50.806;8.776;2023-03-19T08:15:52;10.02;;;8.50;;
78484;SDS011;67773;50.806;8.776;2023-03-19T08:18:18;11.60;;;7.65;;
78484;SDS011;67773;50.806;8.776;2023-03-19T08:20:44;13.65;;;8.38;;
78484;SDS011;67773;50.806;8.776;2023-03-19T08:23:10;14.88;;;10.13;;
78484;SDS011;67773;50.806;8.776;2023-03-19T08:25:37;10.35;;;7.63;;
78484;SDS011;67773;50.806;8.776;2023-03-19T08:28:02;14.68;;;9.82;;
78484;SDS011;67773;50.806;8.776;2023-03-19T08:30:28;9.63;;;7.30;;
78484;SDS011;67773;50.806;8.776;2023-03-19T08:32:53;10.63;;;8.73;;
78484;SDS011;67773;50.806;8.776;2023-03-19T08:35:19;11.48;;;7.07;;
78484;SDS011;67773;50.806;8.776;2023-03-19T08:37:45;9.13;;;7.07;;
78484;SDS011;67773;50.806;8.776;2023-03-19T08:40:10;10.17;;;7.23;;
78484;SDS011;67773;50.806;8.776;2023-03-19T08:42:36;11.30;;;6.93;;
78484;SDS011;67773;50.806;8.776;2023-03-19T08:45:05;10.65;;;6.93;;
78484;SDS011;67773;50.806;8.776;2023-03-19T08:47:32;10.50;;;7.47;;
78484;SDS011;67773;50.806;8.776;2023-03-19T08:49:57;9.43;;;6.97;;
78484;SDS011;67773;50.806;8.776;2023-03-19T08:52:22;11.33;;;7.30;;
78484;SDS011;67773;50.806;8.776;2023-03-19T08:54:48;9.90;;;6.77;;
78484;SDS011;67773;50.806;8.776;2023-03-19T08:57:13;10.03;;;6.67;;
78484;SDS011;67773;50.806;8.776;2023-03-19T08:59:38;9.73;;;6.72;;
78484;SDS011;67773;50.806;8.776;2023-03-19T09:02:04;9.43;;;6.97;;
78484;SDS011;67773;50.806;8.776;2023-03-19T09:04:29;10.98;;;7.00;;
78484;SDS011;67773;50.806;8.776;2023-03-19T09:06:55;9.30;;;6.47;;
78484;SDS011;67773;50.806;8.776;2023-03-19T09:09:21;9.05;;;6.95;;
78484;SDS011;67773;50.806;8.776;2023-03-19T09:11:47;9.35;;;7.47;;
78484;SDS011;67773;50.806;8.776;2023-03-19T09:14:13;10.75;;;7.70;;
78484;SDS011;67773;50.806;8.776;2023-03-19T09:16:40;9.80;;;7.20;;
78484;SDS011;67773;50.806;8.776;2023-03-19T09:19:06;9.18;;;7.43;;
78484;SDS011;67773;50.806;8.776;2023-03-19T09:21:32;8.50;;;7.45;;
78484;SDS011;67773;50.806;8.776;2023-03-19T09:23:57;7.93;;;6.75;;
78484;SDS011;67773;50.806;8.776;2023-03-19T09:26:22;8.77;;;7.10;;
78484;SDS011;67773;50.806;8.776;2023-03-19T09:28:48;10.90;;;6.80;;
78484;SDS011;67773;50.806;8.776;2023-03-19T09:31:13;11.17;;;6.90;;
78484;SDS011;67773;50.806;8.776;2023-03-19T09:33:38;12.13;;;8.10;;
78484;SDS011;67773;50.806;8.776;2023-03-19T09:36:04;39.78;;;21.50;;
78484;SDS011;67773;50.806;8.776;2023-03-19T09:38:33;31.38;;;17.27;;
78484;SDS011;67773;50.806;8.776;2023-03-19T09:41:09;16.30;;;10.37;;
78484;SDS011;67773;50.806;8.776;2023-03-19T09:46:13;8.43;;;6.28;;
78484;SDS011;67773;50.806;8.776;2023-03-19T09:48:47;8.45;;;5.47;;
78484;SDS011;67773;50.806;8.776;2023-03-19T09:51:53;9.63;;;5.30;;
78484;SDS011;67773;50.806;8.776;2023-03-19T09:54:14;8.65;;;4.80;;
78484;SDS011;67773;50.806;8.776;2023-03-19T09:56:52;6.80;;;4.13;;
78484;SDS011;67773;50.806;8.776;2023-03-19T09:59:19;6.18;;;4.30;;
78484;SDS011;67773;50.806;8.776;2023-03-19T10:01:49;6.07;;;3.92;;
78484;SDS011;67773;50.806;8.776;2023-03-19T10:06:50;8.52;;;4.60;;
78484;SDS011;67773;50.806;8.776;2023-03-19T10:09:42;7.60;;;4.65;;
78484;SDS011;67773;50.806;8.776;2023-03-19T10:12:15;4.53;;;3.50;;
78484;SDS011;67773;50.806;8.776;2023-03-19T10:25:24;5.32;;;3.63;;
78484;SDS011;67773;50.806;8.776;2023-03-19T10:27:55;4.50;;;3.65;;
78484;SDS011;67773;50.806;8.776;2023-03-19T10:30:25;5.68;;;3.65;;
78484;SDS011;67773;50.806;8.776;2023-03-19T10:33:04;4.65;;;3.40;;
78484;SDS011;67773;50.806;8.776;2023-03-19T10:35:38;4.35;;;3.25;;
78484;SDS011;67773;50.806;8.776;2023-03-19T10:38:18;6.40;;;3.53;;
78484;SDS011;67773;50.806;8.776;2023-03-19T10:43:26;6.60;;;3.53;;
78484;SDS011;67773;50.806;8.776;2023-03-19T10:45:51;5.30;;;3.60;;
78484;SDS011;67773;50.806;8.776;2023-03-19T10:48:18;9.00;;;3.90;;
78484;SDS011;67773;50.806;8.776;2023-03-19T10:50:51;5.60;;;3.50;;
78484;SDS011;67773;50.806;8.776;2023-03-19T10:53:32;4.25;;;3.45;;
78484;SDS011;67773;50.806;8.776;2023-03-19T10:56:03;5.53;;;3.03;;
78484;SDS011;67773;50.806;8.776;2023-03-19T10:58:54;7.13;;;3.38;;
78484;SDS011;67773;50.806;8.776;2023-03-19T11:01:25;5.07;;;2.88;;
78484;SDS011;67773;50.806;8.776;2023-03-19T11:03:59;4.15;;;2.83;;
78484;SDS011;67773;50.806;8.776;2023-03-19T11:06:35;4.32;;;2.90;;
78484;SDS011;67773;50.806;8.776;2023-03-19T11:11:44;3.38;;;3.00;;
78484;SDS011;67773;50.806;8.776;2023-03-19T11:14:15;5.00;;;3.17;;
78484;SDS011;67773;50.806;8.776;2023-03-19T11:19:18;4.78;;;2.97;;
78484;SDS011;67773;50.806;8.776;2023-03-19T11:22:24;4.60;;;2.97;;
78484;SDS011;67773;50.806;8.776;2023-03-19T11:24:55;6.22;;;3.42;;
78484;SDS011;67773;50.806;8.776;2023-03-19T11:27:25;5.03;;;3.38;;
78484;SDS011;67773;50.806;8.776;2023-03-19T11:29:55;5.90;;;3.30;;
78484;SDS011;67773;50.806;8.776;2023-03-19T11:32:27;4.63;;;2.55;;
78484;SDS011;67773;50.806;8.776;2023-03-19T11:35:19;3.92;;;2.53;;
78484;SDS011;67773;50.806;8.776;2023-03-19T11:37:59;3.80;;;2.42;;
78484;SDS011;67773;50.806;8.776;2023-03-19T11:43:29;3.08;;;2.05;;
78484;SDS011;67773;50.806;8.776;2023-03-19T11:49:10;4.82;;;3.15;;
78484;SDS011;67773;50.806;8.776;2023-03-19T11:51:48;3.25;;;2.05;;
78484;SDS011;67773;50.806;8.776;2023-03-19T11:54:31;3.72;;;2.00;;
78484;SDS011;67773;50.806;8.776;2023-03-19T11:57:20;3.20;;;1.67;;
78484;SDS011;67773;50.806;8.776;2023-03-19T12:08:03;1.48;;;1.00;;
78484;SDS011;67773;50.806;8.776;2023-03-19T12:16:25;2.22;;;1.15;;
78484;SDS011;67773;50.806;8.776;2023-03-19T12:29:45;1.55;;;0.82;;
78484;SDS011;67773;50.806;8.776;2023-03-19T12:32:26;2.25;;;0.80;;
78484;SDS011;67773;50.806;8.776;2023-03-19T12:34:58;19.00;;;9.30;;
78484;SDS011;67773;50.806;8.776;2023-03-19T12:38:16;1.70;;;0.75;;
78484;SDS011;67773;50.806;8.776;2023-03-19T12:40:44;3.47;;;0.80;;
78484;SDS011;67773;50.806;8.776;2023-03-19T12:43:22;1.77;;;1.15;;
78484;SDS011;67773;50.806;8.776;2023-03-19T12:45:55;2.75;;;0.60;;
78484;SDS011;67773;50.806;8.776;2023-03-19T12:48:32;1.38;;;0.80;;
78484;SDS011;67773;50.806;8.776;2023-03-19T12:51:07;1.05;;;0.60;;
78484;SDS011;67773;50.806;8.776;2023-03-19T12:53:55;1.73;;;0.60;;
78484;SDS011;67773;50.806;8.776;2023-03-19T12:56:31;2.15;;;0.70;;
78484;SDS011;67773;50.806;8.776;2023-03-19T12:59:00;2.17;;;0.57;;
78484;SDS011;67773;50.806;8.776;2023-03-19T13:01:31;1.67;;;0.63;;
78484;SDS011;67773;50.806;8.776;2023-03-19T13:04:02;1.23;;;0.70;;
78484;SDS011;67773;50.806;8.776;2023-03-19T13:07:02;2.30;;;0.90;;
78484;SDS011;67773;50.806;8.776;2023-03-19T13:09:35;3.45;;;1.00;;
78484;SDS011;67773;50.806;8.776;2023-03-19T13:12:26;2.67;;;1.27;;
78484;SDS011;67773;50.806;8.776;2023-03-19T13:18:14;1.60;;;1.00;;
78484;SDS011;67773;50.806;8.776;2023-03-19T13:23:47;2.50;;;1.13;;
78484;SDS011;67773;50.806;8.776;2023-03-19T13:26:15;3.88;;;1.38;;
78484;SDS011;67773;50.806;8.776;2023-03-19T13:28:52;2.40;;;1.20;;
78484;SDS011;67773;50.806;8.776;2023-03-19T13:31:24;3.80;;;1.83;;
78484;SDS011;67773;50.806;8.776;2023-03-19T13:33:52;2.70;;;1.25;;
78484;SDS011;67773;50.806;8.776;2023-03-19T13:36:26;3.83;;;1.33;;
78484;SDS011;67773;50.806;8.776;2023-03-19T13:38:54;3.22;;;1.20;;
78484;SDS011;67773;50.806;8.776;2023-03-19T13:43:59;3.13;;;1.33;;
78484;SDS011;67773;50.806;8.776;2023-03-19T13:46:45;2.63;;;1.38;;
78484;SDS011;67773;50.806;8.776;2023-03-19T13:49:30;2.28;;;1.40;;
78484;SDS011;67773;50.806;8.776;2023-03-19T13:52:33;2.85;;;1.48;;
78484;SDS011;67773;50.806;8.776;2023-03-19T13:54:43;3.13;;;1.77;;
78484;SDS011;67773;50.806;8.776;2023-03-19T13:59:42;4.70;;;2.00;;
78484;SDS011;67773;50.806;8.776;2023-03-19T14:07:27;3.97;;;2.22;;
78484;SDS011;67773;50.806;8.776;2023-03-19T14:15:00;2.85;;;1.00;;
78484;SDS011;67773;50.806;8.776;2023-03-19T14:17:33;2.30;;;1.00;;
78484;SDS011;67773;50.806;8.776;2023-03-19T14:23:01;2.40;;;0.60;;
78484;SDS011;67773;50.806;8.776;2023-03-19T14:28:37;5.13;;;2.50;;
78484;SDS011;67773;50.806;8.776;2023-03-19T14:31:18;3.20;;;1.25;;
78484;SDS011;67773;50.806;8.776;2023-03-19T14:33:52;2.47;;;0.70;;
78484;SDS011;67773;50.806;8.776;2023-03-19T14:36:22;2.58;;;0.73;;
78484;SDS011;67773;50.806;8.776;2023-03-19T14:38:58;1.80;;;0.90;;
78484;SDS011;67773;50.806;8.776;2023-03-19T14:41:26;1.00;;;0.50;;
78484;SDS011;67773;50.806;8.776;2023-03-19T14:53:10;2.00;;;0.50;;
78484;SDS011;67773;50.806;8.776;2023-03-19T14:55:42;1.05;;;0.30;;
78484;SDS011;67773;50.806;8.776;2023-03-19T14:58:14;1.02;;;0.30;;
78484;SDS011;67773;50.806;8.776;2023-03-19T15:00:43;0.70;;;0.30;;
78484;SDS011;67773;50.806;8.776;2023-03-19T15:03:21;0.82;;;0.20;;
78484;SDS011;67773;50.806;8.776;2023-03-19T15:06:04;0.75;;;0.30;;
78484;SDS011;67773;50.806;8.776;2023-03-19T15:08:32;2.25;;;0.28;;
78484;SDS011;67773;50.806;8.776;2023-03-19T15:16:30;2.05;;;0.38;;
78484;SDS011;67773;50.806;8.776;2023-03-19T15:19:08;0.20;;;0.10;;
78484;SDS011;67773;50.806;8.776;2023-03-19T15:21:35;0.93;;;0.20;;
78484;SDS011;67773;50.806;8.776;2023-03-19T15:24:01;0.73;;;0.15;;
78484;SDS011;67773;50.806;8.776;2023-03-19T15:26:32;21.35;;;10.32;;
78484;SDS011;67773;50.806;8.776;2023-03-19T15:29:00;0.90;;;0.32;;
78484;SDS011;67773;50.806;8.776;2023-03-19T15:31:42;0.30;;;0.30;;
78484;SDS011;67773;50.806;8.776;2023-03-19T15:34:19;0.30;;;0.10;;
78484;SDS011;67773;50.806;8.776;2023-03-19T15:36:46;0.60;;;0.13;;
78484;SDS011;67773;50.806;8.776;2023-03-19T15:39:17;0.32;;;0.20;;
78484;SDS011;67773;50.806;8.776;2023-03-19T15:41:45;0.40;;;0.20;;
78484;SDS011;67773;50.806;8.776;2023-03-19T15:44:15;0.30;;;0.20;;
78484;SDS011;67773;50.806;8.776;2023-03-19T15:46:48;0.30;;;0.20;;
78484;SDS011;67773;50.806;8.776;2023-03-19T15:49:27;1.38;;;0.20;;
78484;SDS011;67773;50.806;8.776;2023-03-19T15:52:00;0.82;;;0.38;;
78484;SDS011;67773;50.806;8.776;2023-03-19T15:54:28;1.40;;;0.20;;
78484;SDS011;67773;50.806;8.776;2023-03-19T15:56:53;0.90;;;0.30;;
78484;SDS011;67773;50.806;8.776;2023-03-19T15:59:20;0.30;;;0.13;;
78484;SDS011;67773;50.806;8.776;2023-03-19T16:01:49;1.15;;;0.40;;
78484;SDS011;67773;50.806;8.776;2023-03-19T16:04:16;0.40;;;0.30;;
78484;SDS011;67773;50.806;8.776;2023-03-19T16:06:46;0.40;;;0.20;;
78484;SDS011;67773;50.806;8.776;2023-03-19T16:11:42;0.40;;;0.20;;
78484;SDS011;67773;50.806;8.776;2023-03-19T16:16:41;0.60;;;0.30;;
78484;SDS011;67773;50.806;8.776;2023-03-19T16:22:14;0.93;;;0.50;;
78484;SDS011;67773;50.806;8.776;2023-03-19T16:24:45;7.30;;;2.30;;
78484;SDS011;67773;50.806;8.776;2023-03-19T16:27:13;9.55;;;4.50;;
78484;SDS011;67773;50.806;8.776;2023-03-19T16:29:55;1.73;;;0.50;;
78484;SDS011;67773;50.806;8.776;2023-03-19T16:32:23;2.58;;;1.45;;
78484;SDS011;67773;50.806;8.776;2023-03-19T16:35:19;3.30;;;1.65;;
78484;SDS011;67773;50.806;8.776;2023-03-19T16:37:48;1.00;;;0.38;;